Time;durP1;ratioP1;P1;durP2;ratioP2;P2;SDS_P1;SDS_P2;PMS_P1;PMS_P2;Temp;Humidity;BMP_temperature;BMP_pressure;BME280_temperature;BME280_humidity;BME280_pressure;Samples;Min_cycle;Max_cycle;Signal;HPM_P1;HPM_P2
2022/05/15 00:01:48;;;;;;;;;;;;;;;;;;5135533;27;19907;-75
2022/05/15 00:04:33;;;;;;;;;;;;;;;;;;5115123;27;19916;-73
2022/05/15 00:07:19;;;;;;;;;;;;;;;;;;5113236;27;19919;-75
2022/05/15 00:10:04;;;;;;;;;;;;;;;;;;5117883;27;19912;-76
2022/05/15 00:12:50;;;;;;;;;;;;;;;;;;5114315;28;19995;-76
2022/05/15 00:15:35;;;;;;;;;;;;;;;;;;5114154;28;19908;-70
2022/05/15 00:18:21;;;;;;;;;;;;;;;;;;5113006;28;20270;-76
2022/05/15 00:21:06;;;;;;;;;;;;;;;;;;5100099;28;19911;-75
2022/05/15 00:23:52;;;;;;;;;;;;;;;;;;5115089;28;19994;-75
2022/05/15 00:26:37;;;;;;;;;;;;;;;;;;5115123;28;19915;-75
2022/05/15 00:29:22;;;;;;;;;;;;;;;;;;5115082;28;19953;-75
2022/05/15 00:32:08;;;;;;;;;;;;;;;;;;5114935;28;19914;-75
2022/05/15 00:34:53;;;;;;;;;;;;;;;;;;5100933;28;20278;-64
2022/05/15 00:37:39;;;;;;;;;;;;;;;;;;5102820;27;20010;-66
2022/05/15 00:40:24;;;;;;;;;;;;;;;;;;5131049;27;19908;-66
2022/05/15 00:43:10;;;;;;;;;;;;;;;;;;5115278;27;20351;-65
2022/05/15 00:45:56;;;;;;;;;;;;;;;;;;5113679;28;20006;-65
2022/05/15 00:48:41;;;;;;;;;;;;;;;;;;5115160;27;19939;-65
2022/05/15 00:51:27;;;;;;;;;;;;;;;;;;5115159;27;20334;-66
2022/05/15 00:54:12;;;;;;;;;;;;;;;;;;5115272;27;19914;-66
2022/05/15 00:56:57;;;;;;;;;;;;;;;;;;5115145;28;19915;-65
2022/05/15 00:59:43;;;;;;;;;;;;;;;;;;5098959;27;19908;-65
2022/05/15 01:02:28;;;;;;;;;;;;;;;;;;5115273;27;19915;-65
2022/05/15 01:05:14;;;;;;;;;;;;;;;;;;5113385;28;19964;-64
2022/05/15 01:07:59;;;;;;;;;;;;;;;;;;5120492;27;19919;-65
2022/05/15 01:10:45;;;;;;;;;;;;;;;;;;5117931;27;19915;-64
2022/05/15 01:13:30;;;;;;;;;;;;;;;;;;5133590;27;20350;-65
2022/05/15 01:16:15;;;;;;;;;;;;;;;;;;5133593;27;19907;-65
2022/05/15 01:19:02;;;;;;;;;;;;;;;;;;5113802;27;19955;-65
2022/05/15 01:21:48;;;;;;;;;;;;;;;;;;5114703;27;19930;-64
2022/05/15 01:24:33;;;;;;;;;;;;;;;;;;5098855;28;19974;-65
2022/05/15 01:27:19;;;;;;;;;;;;;;;;;;5113910;28;20411;-64
2022/05/15 01:30:05;;;;;;;;;;;;;;;;;;5113519;28;19915;-66
2022/05/15 01:32:50;;;;;;;;;;;;;;;;;;5098649;28;19908;-63
2022/05/15 01:35:36;;;;;;;;;;;;;;;;;;5114161;28;20000;-63
2022/05/15 01:38:21;;;;;;;;;;;;;;;;;;5123191;27;20350;-63
2022/05/15 01:41:07;;;;;;;;;;;;;;;;;;5132964;27;19907;-62
2022/05/15 01:43:53;;;;;;;;;;;;;;;;;;5133641;27;19918;-64
2022/05/15 01:46:38;;;;;;;;;;;;;;;;;;5133638;27;19911;-66
2022/05/15 01:49:24;;;;;;;;;;;;;;;;;;5132923;27;19908;-66
2022/05/15 01:52:09;;;;;;;;;;;;;;;;;;5132968;27;20184;-66
2022/05/15 01:54:54;;;;;;;;;;;;;;;;;;5133008;27;19949;-66
2022/05/15 01:57:40;;;;;;;;;;;;;;;;;;5132832;27;19907;-65
2022/05/15 02:00:25;;;;;;;;;;;;;;;;;;5132888;27;19914;-67
2022/05/15 02:03:11;;;;;;;;;;;;;;;;;;5124416;27;19958;-65
2022/05/15 02:05:56;;;;;;;;;;;;;;;;;;5112988;28;19919;-67
2022/05/15 02:08:42;;;;;;;;;;;;;;;;;;5125606;28;19907;-62
2022/05/15 02:11:28;;;;;;;;;;;;;;;;;;5133282;28;20358;-63
2022/05/15 02:14:13;;;;;;;;;;;;;;;;;;5132785;28;20006;-63
2022/05/15 02:16:59;;;;;;;;;;;;;;;;;;5113798;28;19914;-62
2022/05/15 02:19:44;;;;;;;;;;;;;;;;;;5097913;28;19908;-62
2022/05/15 02:22:30;;;;;;;;;;;;;;;;;;5113349;28;19998;-63
2022/05/15 02:25:15;;;;;;;;;;;;;;;;;;5113171;28;20352;-67
2022/05/15 02:28:00;;;;;;;;;;;;;;;;;;5112773;28;19911;-64
2022/05/15 02:30:46;;;;;;;;;;;;;;;;;;5111873;28;19919;-65
2022/05/15 02:33:31;;;;;;;;;;;;;;;;;;5111727;28;20435;-63
2022/05/15 02:36:17;;;;;;;;;;;;;;;;;;5113039;28;19908;-63
2022/05/15 02:39:02;;;;;;;;;;;;;;;;;;5129661;28;19907;-62
2022/05/15 02:41:48;;;;;;;;;;;;;;;;;;5132887;27;19908;-66
2022/05/15 02:44:33;;;;;;;;;;;;;;;;;;5136419;27;19915;-63
2022/05/15 02:47:18;;;;;;;;;;;;;;;;;;5136397;27;19950;-62
2022/05/15 02:53:08;;;;;;;;;;;;;;;;;;5137017;27;19919;-61
2022/05/15 02:55:54;;;;;;;;;;;;;;;;;;5136028;27;19913;-63
2022/05/15 02:58:39;;;;;;;;;;;;;;;;;;5115337;28;20278;-63
2022/05/15 03:01:25;;;;;;;;;;;;;;;;;;5116501;28;19907;-66
2022/05/15 03:04:10;;;;;;;;;;;;;;;;;;5116311;28;19959;-70
2022/05/15 03:06:56;;;;;;;;;;;;;;;;;;5101471;28;19934;-70
2022/05/15 03:09:41;;;;;;;;;;;;;;;;;;5137231;27;19969;-70
2022/05/15 03:12:26;;;;;;;;;;;;;;;;;;5136086;27;19912;-71
2022/05/15 03:15:14;;;;;;;;;;;;;;;;;;5135748;27;19907;-70
2022/05/15 03:18:00;;;;;;;;;;;;;;;;;;5124832;27;19920;-70
2022/05/15 03:20:45;;;;;;;;;;;;;;;;;;5116324;28;20024;-66
2022/05/15 03:23:30;;;;;;;;;;;;;;;;;;5116216;28;20011;-67
2022/05/15 03:26:16;;;;;;;;;;;;;;;;;;5116068;28;19939;-67
2022/05/15 03:29:01;;;;;;;;;;;;;;;;;;5095864;28;19919;-68
2022/05/15 03:31:47;;;;;;;;;;;;;;;;;;5095528;28;19915;-67
2022/05/15 03:34:32;;;;;;;;;;;;;;;;;;5114755;28;20347;-67
2022/05/15 03:37:18;;;;;;;;;;;;;;;;;;5117546;27;19915;-73
2022/05/15 03:40:03;;;;;;;;;;;;;;;;;;5135452;27;19959;-65
2022/05/15 03:42:49;;;;;;;;;;;;;;;;;;5136576;27;19931;-66
2022/05/15 03:45:34;;;;;;;;;;;;;;;;;;5119114;27;19924;-64
2022/05/15 03:48:20;;;;;;;;;;;;;;;;;;5135210;27;19908;-66
2022/05/15 03:51:05;;;;;;;;;;;;;;;;;;5134992;27;19908;-66
2022/05/15 03:53:50;;;;;;;;;;;;;;;;;;5134930;27;19968;-66
2022/05/15 03:56:51;;;;;;;;;;;;;;;;;;5123830;27;19922;-61
2022/05/15 03:59:37;;;;;;;;;;;;;;;;;;5114318;28;19908;-63
2022/05/15 04:02:22;;;;;;;;;;;;;;;;;;5114327;28;20286;-64
2022/05/15 04:05:08;;;;;;;;;;;;;;;;;;5115259;28;20281;-65
2022/05/15 04:07:53;;;;;;;;;;;;;;;;;;5121921;27;19907;-64
2022/05/15 04:10:39;;;;;;;;;;;;;;;;;;5134738;27;19911;-64
2022/05/15 04:13:25;;;;;;;;;;;;;;;;;;5134587;27;19907;-76
2022/05/15 04:16:11;;;;;;;;;;;;;;;;;;5135345;27;19907;-64
2022/05/15 04:18:57;;;;;;;;;;;;;;;;;;5115007;27;20003;-65
2022/05/15 04:21:42;;;;;;;;;;;;;;;;;;5115803;27;19984;-66
2022/05/15 04:24:27;;;;;;;;;;;;;;;;;;5115067;28;19926;-66
2022/05/15 04:27:13;;;;;;;;;;;;;;;;;;5114663;28;20003;-66
2022/05/15 04:29:58;;;;;;;;;;;;;;;;;;5113719;28;20370;-64
2022/05/15 04:32:44;;;;;;;;;;;;;;;;;;5113690;28;19908;-67
2022/05/15 04:35:29;;;;;;;;;;;;;;;;;;5114873;28;19908;-66
2022/05/15 04:38:15;;;;;;;;;;;;;;;;;;5124319;27;19914;-67
2022/05/15 04:41:00;;;;;;;;;;;;;;;;;;5134200;27;19907;-66
2022/05/15 04:43:47;;;;;;;;;;;;;;;;;;5133800;27;20136;-66
2022/05/15 04:46:32;;;;;;;;;;;;;;;;;;5134938;27;19912;-65
2022/05/15 04:49:18;;;;;;;;;;;;;;;;;;5133738;27;19907;-66
2022/05/15 04:52:03;;;;;;;;;;;;;;;;;;5134218;27;20285;-67
2022/05/15 04:54:49;;;;;;;;;;;;;;;;;;5133878;27;20006;-68
2022/05/15 04:57:34;;;;;;;;;;;;;;;;;;5094484;28;19935;-68
2022/05/15 05:00:19;;;;;;;;;;;;;;;;;;5094597;28;20407;-66
2022/05/15 05:03:05;;;;;;;;;;;;;;;;;;5101491;28;19915;-67
2022/05/15 05:05:50;;;;;;;;;;;;;;;;;;5113620;28;19977;-67
2022/05/15 05:08:36;;;;;;;;;;;;;;;;;;5126802;27;20354;-65
2022/05/15 05:11:21;;;;;;;;;;;;;;;;;;5117694;27;20362;-66
2022/05/15 05:14:07;;;;;;;;;;;;;;;;;;5133337;27;19914;-78
2022/05/15 05:16:52;;;;;;;;;;;;;;;;;;5131619;27;19915;-76
2022/05/15 05:19:38;;;;;;;;;;;;;;;;;;5113930;28;19908;-78
2022/05/15 05:22:23;;;;;;;;;;;;;;;;;;5114038;28;20291;-76
2022/05/15 05:25:08;;;;;;;;;;;;;;;;;;5114853;27;19917;-79
2022/05/15 05:27:54;;;;;;;;;;;;;;;;;;5112337;28;20282;-67
2022/05/15 05:30:39;;;;;;;;;;;;;;;;;;5097637;28;19908;-64
2022/05/15 05:33:25;;;;;;;;;;;;;;;;;;5112407;28;19992;-68
2022/05/15 05:36:10;;;;;;;;;;;;;;;;;;5113812;28;19908;-65
2022/05/15 05:38:56;;;;;;;;;;;;;;;;;;5129402;27;19934;-63
2022/05/15 05:41:41;;;;;;;;;;;;;;;;;;5116958;27;20354;-64
2022/05/15 05:44:27;;;;;;;;;;;;;;;;;;5132723;27;19973;-65
2022/05/15 05:47:12;;;;;;;;;;;;;;;;;;5132705;27;19980;-66
2022/05/15 05:49:58;;;;;;;;;;;;;;;;;;5132457;27;19914;-71
2022/05/15 05:52:43;;;;;;;;;;;;;;;;;;5132967;27;19907;-70
2022/05/15 05:55:29;;;;;;;;;;;;;;;;;;5125722;27;20297;-72
2022/05/15 05:58:14;;;;;;;;;;;;;;;;;;5112880;28;19919;-71
2022/05/15 06:00:59;;;;;;;;;;;;;;;;;;5112344;28;20342;-71
2022/05/15 06:06:49;;;;;;;;;;;;;;;;;;5113102;28;20398;-64
2022/05/15 06:09:34;;;;;;;;;;;;;;;;;;5093178;28;19955;-64
2022/05/15 06:12:20;;;;;;;;;;;;;;;;;;5092042;28;20359;-65
2022/05/15 06:15:05;;;;;;;;;;;;;;;;;;5092238;28;19908;-64
2022/05/15 06:17:51;;;;;;;;;;;;;;;;;;5105871;28;20331;-64
2022/05/15 06:20:36;;;;;;;;;;;;;;;;;;5101945;28;19912;-64
2022/05/15 06:23:22;;;;;;;;;;;;;;;;;;5117087;28;19907;-63
2022/05/15 06:26:07;;;;;;;;;;;;;;;;;;5116889;28;19932;-71
2022/05/15 06:28:53;;;;;;;;;;;;;;;;;;5115860;28;19915;-71
2022/05/15 06:31:38;;;;;;;;;;;;;;;;;;5116043;28;19908;-70
2022/05/15 06:34:24;;;;;;;;;;;;;;;;;;5115575;28;19907;-71
2022/05/15 06:37:09;;;;;;;;;;;;;;;;;;5117473;27;20347;-71
2022/05/15 06:39:55;;;;;;;;;;;;;;;;;;5136077;27;19908;-71
2022/05/15 06:42:40;;;;;;;;;;;;;;;;;;5120395;27;19919;-63
2022/05/15 06:45:25;;;;;;;;;;;;;;;;;;5136610;27;19916;-64
2022/05/15 06:48:12;;;;;;;;;;;;;;;;;;5136517;27;19907;-63
2022/05/15 06:50:59;;;;;;;;;;;;;;;;;;5137024;27;19907;-65
2022/05/15 06:53:45;;;;;;;;;;;;;;;;;;5136826;27;19907;-64
2022/05/15 06:59:35;;;;;;;;;;;;;;;;;;5118228;27;19912;-67
2022/05/15 07:02:20;;;;;;;;;;;;;;;;;;5115614;28;19908;-71
2022/05/15 07:05:06;;;;;;;;;;;;;;;;;;5116575;28;19935;-70
2022/05/15 07:07:54;;;;;;;;;;;;;;;;;;5122689;27;19957;-70
2022/05/15 07:10:39;;;;;;;;;;;;;;;;;;5120247;27;19996;-70
2022/05/15 07:13:25;;;;;;;;;;;;;;;;;;5135797;27;19907;-71
2022/05/15 07:16:11;;;;;;;;;;;;;;;;;;5136391;27;19907;-70
2022/05/15 07:18:57;;;;;;;;;;;;;;;;;;5116696;27;19934;-75
2022/05/15 07:21:42;;;;;;;;;;;;;;;;;;5116834;28;19922;-65
2022/05/15 07:24:28;;;;;;;;;;;;;;;;;;5116240;28;19915;-65
2022/05/15 07:27:14;;;;;;;;;;;;;;;;;;5115268;28;20404;-66
2022/05/15 07:30:00;;;;;;;;;;;;;;;;;;5117468;27;20333;-65
2022/05/15 07:32:45;;;;;;;;;;;;;;;;;;5099352;28;20363;-65
2022/05/15 07:35:31;;;;;;;;;;;;;;;;;;5115793;28;19919;-64
2022/05/15 07:38:16;;;;;;;;;;;;;;;;;;5110141;27;19998;-65
2022/05/15 07:41:02;;;;;;;;;;;;;;;;;;5135250;27;20358;-69
2022/05/15 07:43:47;;;;;;;;;;;;;;;;;;5135855;27;19911;-72
2022/05/15 07:46:32;;;;;;;;;;;;;;;;;;5134928;27;20229;-70
2022/05/15 07:49:18;;;;;;;;;;;;;;;;;;5134825;27;19947;-70
2022/05/15 07:52:03;;;;;;;;;;;;;;;;;;5135114;27;19914;-71
2022/05/15 07:54:49;;;;;;;;;;;;;;;;;;5134972;27;19919;-67
2022/05/15 07:57:35;;;;;;;;;;;;;;;;;;5135594;27;19914;-72
2022/05/15 08:00:20;;;;;;;;;;;;;;;;;;5134982;27;19907;-72
2022/05/15 08:03:07;;;;;;;;;;;;;;;;;;5127669;27;20006;-71
2022/05/15 08:08:57;;;;;;;;;;;;;;;;;;5132180;27;19907;-70
2022/05/15 08:11:43;;;;;;;;;;;;;;;;;;5134522;27;20362;-71
2022/05/15 08:14:29;;;;;;;;;;;;;;;;;;5134874;27;19908;-74
2022/05/15 08:17:15;;;;;;;;;;;;;;;;;;5129794;27;19927;-75
2022/05/15 08:26:08;;;;;;;;;;;;;;;;;;5114668;28;19923;-75
2022/05/15 08:28:54;;;;;;;;;;;;;;;;;;5115088;28;20334;-75
2022/05/15 08:31:39;;;;;;;;;;;;;;;;;;5115219;28;20255;-70
2022/05/15 08:34:25;;;;;;;;;;;;;;;;;;5114574;28;19908;-67
2022/05/15 08:37:10;;;;;;;;;;;;;;;;;;5115765;27;19943;-65
2022/05/15 08:39:56;;;;;;;;;;;;;;;;;;5133113;27;19918;-67
2022/05/15 08:42:41;;;;;;;;;;;;;;;;;;5134126;27;19952;-65
2022/05/15 08:45:27;;;;;;;;;;;;;;;;;;5133756;27;20293;-65
2022/05/15 08:48:12;;;;;;;;;;;;;;;;;;5117998;27;19960;-67
2022/05/15 08:50:59;;;;;;;;;;;;;;;;;;5114987;27;19919;-70
2022/05/15 08:53:44;;;;;;;;;;;;;;;;;;5115472;27;19915;-70
2022/05/15 08:56:30;;;;;;;;;;;;;;;;;;5113050;28;20316;-70
2022/05/15 08:59:15;;;;;;;;;;;;;;;;;;5113013;28;19999;-71
2022/05/15 09:02:01;;;;;;;;;;;;;;;;;;5112890;28;20290;-70
2022/05/15 09:04:46;;;;;;;;;;;;;;;;;;5092813;28;19927;-71
2022/05/15 09:07:33;;;;;;;;;;;;;;;;;;5085376;27;19908;-70
2022/05/15 09:10:19;;;;;;;;;;;;;;;;;;5110315;28;19923;-67
2022/05/15 09:13:05;;;;;;;;;;;;;;;;;;5114049;28;19915;-64
2022/05/15 09:15:51;;;;;;;;;;;;;;;;;;5113886;28;20389;-65
2022/05/15 09:18:38;;;;;;;;;;;;;;;;;;5098266;28;19931;-65
2022/05/15 09:21:23;;;;;;;;;;;;;;;;;;5114434;27;19912;-65
2022/05/15 09:24:09;;;;;;;;;;;;;;;;;;5113776;28;19955;-65
2022/05/15 09:26:54;;;;;;;;;;;;;;;;;;5113779;28;19908;-65
2022/05/15 09:29:40;;;;;;;;;;;;;;;;;;5113798;28;20345;-67
2022/05/15 09:32:26;;;;;;;;;;;;;;;;;;5113634;28;19908;-66
2022/05/15 09:35:11;;;;;;;;;;;;;;;;;;5112431;28;19908;-67
2022/05/15 09:44:05;;;;;;;;;;;;;;;;;;5114542;27;19915;-67
2022/05/15 09:46:51;;;;;;;;;;;;;;;;;;5112040;28;19919;-66
2022/05/15 09:49:36;;;;;;;;;;;;;;;;;;5113437;28;19935;-63
2022/05/15 09:52:21;;;;;;;;;;;;;;;;;;5111923;28;19961;-63
2022/05/15 09:55:07;;;;;;;;;;;;;;;;;;5112388;28;19907;-63
2022/05/15 09:57:52;;;;;;;;;;;;;;;;;;5112149;28;19914;-63
2022/05/15 10:00:38;;;;;;;;;;;;;;;;;;5112302;28;20036;-63
2022/05/15 10:03:23;;;;;;;;;;;;;;;;;;5114346;27;19908;-64
2022/05/15 10:06:09;;;;;;;;;;;;;;;;;;5113045;28;19922;-70
2022/05/15 10:08:55;;;;;;;;;;;;;;;;;;5121520;27;19912;-67
2022/05/15 10:11:40;;;;;;;;;;;;;;;;;;5111942;28;20277;-67
2022/05/15 10:14:26;;;;;;;;;;;;;;;;;;5113063;28;19911;-66
2022/05/15 10:17:12;;;;;;;;;;;;;;;;;;5112824;28;20281;-67
2022/05/15 10:19:59;;;;;;;;;;;;;;;;;;5113045;28;20285;-67
2022/05/15 10:22:45;;;;;;;;;;;;;;;;;;5113632;27;19961;-64
2022/05/15 10:25:31;;;;;;;;;;;;;;;;;;5113157;28;20018;-65
2022/05/15 10:28:17;;;;;;;;;;;;;;;;;;5113699;27;20018;-64
2022/05/15 10:31:02;;;;;;;;;;;;;;;;;;5112930;28;19961;-64
2022/05/15 10:33:47;;;;;;;;;;;;;;;;;;5113173;28;19998;-63
2022/05/15 10:36:33;;;;;;;;;;;;;;;;;;5114042;28;20327;-65
2022/05/15 10:39:18;;;;;;;;;;;;;;;;;;5122858;28;19919;-64
2022/05/15 10:42:04;;;;;;;;;;;;;;;;;;5096754;28;19908;-71
2022/05/15 10:44:49;;;;;;;;;;;;;;;;;;5111654;28;19920;-65
2022/05/15 10:47:35;;;;;;;;;;;;;;;;;;5111735;28;20282;-65
2022/05/15 10:50:20;;;;;;;;;;;;;;;;;;5096477;28;19918;-65
2022/05/15 10:57:21;;;;;;;;;;;;;;;;;;5114134;27;20054;-66
2022/05/15 10:59:15;;;;;;;;;;;;;;;;;;5113861;27;19953;-66
2022/05/15 11:02:01;;;;;;;;;;;;;;;;;;5111744;28;20282;-66
2022/05/15 11:04:46;;;;;;;;;;;;;;;;;;5095341;28;19920;-66
2022/05/15 11:07:31;;;;;;;;;;;;;;;;;;5103685;27;19907;-65
2022/05/15 11:10:18;;;;;;;;;;;;;;;;;;5119552;27;19919;-64
2022/05/15 11:13:04;;;;;;;;;;;;;;;;;;5117747;27;19915;-65
2022/05/15 11:15:49;;;;;;;;;;;;;;;;;;5117747;27;19912;-66
2022/05/15 11:18:35;;;;;;;;;;;;;;;;;;5115174;28;20361;-71
2022/05/15 11:21:20;;;;;;;;;;;;;;;;;;5116566;28;19908;-66
2022/05/15 11:24:06;;;;;;;;;;;;;;;;;;5116412;28;19912;-66
2022/05/15 11:26:51;;;;;;;;;;;;;;;;;;5116480;28;20099;-66
2022/05/15 11:29:37;;;;;;;;;;;;;;;;;;5116229;28;19916;-65
2022/05/15 11:32:22;;;;;;;;;;;;;;;;;;5116330;28;19968;-66
2022/05/15 11:35:07;;;;;;;;;;;;;;;;;;5116706;27;20438;-66
2022/05/15 11:37:53;;;;;;;;;;;;;;;;;;5123254;27;19908;-66
2022/05/15 11:40:39;;;;;;;;;;;;;;;;;;5117106;27;19912;-71
2022/05/15 11:43:24;;;;;;;;;;;;;;;;;;5101927;27;19908;-71
2022/05/15 11:46:10;;;;;;;;;;;;;;;;;;5114706;28;19992;-70
2022/05/15 11:48:55;;;;;;;;;;;;;;;;;;5099701;28;19908;-70
2022/05/15 11:51:41;;;;;;;;;;;;;;;;;;5114618;28;20453;-71
2022/05/15 11:54:26;;;;;;;;;;;;;;;;;;5114631;28;20298;-67
2022/05/15 11:57:13;;;;;;;;;;;;;;;;;;5114498;28;19951;-64
2022/05/15 11:59:58;;;;;;;;;;;;;;;;;;5116821;27;20407;-64
2022/05/15 12:02:44;;;;;;;;;;;;;;;;;;5114353;28;19915;-63
2022/05/15 12:05:30;;;;;;;;;;;;;;;;;;5115368;28;19968;-64
2022/05/15 12:08:15;;;;;;;;;;;;;;;;;;5125205;27;19915;-63
2022/05/15 12:11:00;;;;;;;;;;;;;;;;;;5113799;28;19912;-63
2022/05/15 12:13:46;;;;;;;;;;;;;;;;;;5115173;28;19912;-65
2022/05/15 12:16:33;;;;;;;;;;;;;;;;;;5100195;28;19911;-64
2022/05/15 12:19:20;;;;;;;;;;;;;;;;;;5094748;28;19920;-63
2022/05/15 12:22:06;;;;;;;;;;;;;;;;;;5093662;28;19961;-63
2022/05/15 12:24:51;;;;;;;;;;;;;;;;;;5095228;28;19916;-63
2022/05/15 12:27:36;;;;;;;;;;;;;;;;;;5095097;28;19912;-63
2022/05/15 12:30:22;;;;;;;;;;;;;;;;;;5095253;28;20278;-77
2022/05/15 12:33:08;;;;;;;;;;;;;;;;;;5100702;28;19914;-67
2022/05/15 12:35:53;;;;;;;;;;;;;;;;;;5114892;28;19957;-67
2022/05/15 12:38:40;;;;;;;;;;;;;;;;;;5124639;27;20290;-67
2022/05/15 12:41:26;;;;;;;;;;;;;;;;;;5115240;27;19916;-67
2022/05/15 12:44:12;;;;;;;;;;;;;;;;;;5114749;28;20282;-66
2022/05/15 12:46:57;;;;;;;;;;;;;;;;;;5114843;28;19907;-65
2022/05/15 12:49:43;;;;;;;;;;;;;;;;;;5099342;28;20354;-67
2022/05/15 12:52:28;;;;;;;;;;;;;;;;;;5099486;28;19914;-67
2022/05/15 12:55:13;;;;;;;;;;;;;;;;;;5114770;28;19908;-66
2022/05/15 12:57:59;;;;;;;;;;;;;;;;;;5114616;28;20388;-65
2022/05/15 13:00:44;;;;;;;;;;;;;;;;;;5114401;28;20259;-65
2022/05/15 13:03:30;;;;;;;;;;;;;;;;;;5114208;28;20426;-65
2022/05/15 13:06:15;;;;;;;;;;;;;;;;;;5114729;27;19954;-67
2022/05/15 13:09:01;;;;;;;;;;;;;;;;;;5109354;27;20388;-66
2022/05/15 13:11:46;;;;;;;;;;;;;;;;;;5115036;27;19939;-76
2022/05/15 13:14:32;;;;;;;;;;;;;;;;;;5114692;28;19908;-76
2022/05/15 13:17:17;;;;;;;;;;;;;;;;;;5113727;28;19916;-74
2022/05/15 13:20:03;;;;;;;;;;;;;;;;;;5113864;28;20285;-75
2022/05/15 13:22:48;;;;;;;;;;;;;;;;;;5115248;27;19918;-75
2022/05/15 13:25:34;;;;;;;;;;;;;;;;;;5113125;28;19923;-70
2022/05/15 13:28:19;;;;;;;;;;;;;;;;;;5113748;28;19908;-75
2022/05/15 13:31:05;;;;;;;;;;;;;;;;;;5113799;28;19953;-72
2022/05/15 13:33:53;;;;;;;;;;;;;;;;;;5098504;28;19907;-71
2022/05/15 13:36:39;;;;;;;;;;;;;;;;;;5112463;28;20012;-71
2022/05/15 13:45:33;;;;;;;;;;;;;;;;;;5114778;27;20014;-64
2022/05/15 13:48:18;;;;;;;;;;;;;;;;;;5112504;28;19908;-66
2022/05/15 13:51:04;;;;;;;;;;;;;;;;;;5112187;28;19915;-68
2022/05/15 13:53:49;;;;;;;;;;;;;;;;;;5112228;28;19919;-67
2022/05/15 13:56:34;;;;;;;;;;;;;;;;;;5112277;28;19952;-66
2022/05/15 13:59:20;;;;;;;;;;;;;;;;;;5112667;28;19951;-67
2022/05/15 14:02:05;;;;;;;;;;;;;;;;;;5112259;28;19914;-66
2022/05/15 14:04:54;;;;;;;;;;;;;;;;;;5092200;28;19916;-66
2022/05/15 14:07:40;;;;;;;;;;;;;;;;;;5100766;28;20368;-64
2022/05/15 14:10:26;;;;;;;;;;;;;;;;;;5112634;27;20395;-64
2022/05/15 14:13:14;;;;;;;;;;;;;;;;;;5114377;27;19908;-65
2022/05/15 14:15:59;;;;;;;;;;;;;;;;;;5114625;27;20397;-64
2022/05/15 14:18:45;;;;;;;;;;;;;;;;;;5111848;28;19920;-66
2022/05/15 14:21:30;;;;;;;;;;;;;;;;;;5092676;28;19920;-64
2022/05/15 14:24:16;;;;;;;;;;;;;;;;;;5092971;28;19912;-75
2022/05/15 14:27:01;;;;;;;;;;;;;;;;;;5092788;28;20048;-77
2022/05/15 14:29:47;;;;;;;;;;;;;;;;;;5092271;28;19912;-76
2022/05/15 14:32:32;;;;;;;;;;;;;;;;;;5094304;28;19961;-74
2022/05/15 14:35:20;;;;;;;;;;;;;;;;;;5112767;28;19994;-76
2022/05/15 14:38:05;;;;;;;;;;;;;;;;;;5122079;27;19914;-75
2022/05/15 14:40:50;;;;;;;;;;;;;;;;;;5136506;27;19908;-66
2022/05/15 14:43:39;;;;;;;;;;;;;;;;;;5136508;27;20425;-70
2022/05/15 14:46:25;;;;;;;;;;;;;;;;;;5137115;27;19916;-71
2022/05/15 14:49:11;;;;;;;;;;;;;;;;;;5118792;27;19975;-71
2022/05/15 14:51:56;;;;;;;;;;;;;;;;;;5115648;28;20378;-70
2022/05/15 14:54:42;;;;;;;;;;;;;;;;;;5115621;28;19943;-70
2022/05/15 14:57:27;;;;;;;;;;;;;;;;;;5117988;27;19908;-69
2022/05/15 15:00:14;;;;;;;;;;;;;;;;;;5115665;28;19915;-62
2022/05/15 15:02:59;;;;;;;;;;;;;;;;;;5118027;27;19980;-62
2022/05/15 15:05:45;;;;;;;;;;;;;;;;;;5116453;28;20389;-62
2022/05/15 15:08:31;;;;;;;;;;;;;;;;;;5128367;27;19915;-62
2022/05/15 15:11:17;;;;;;;;;;;;;;;;;;5136618;27;20288;-63
2022/05/15 15:14:02;;;;;;;;;;;;;;;;;;5136059;27;20006;-62
2022/05/15 15:16:48;;;;;;;;;;;;;;;;;;5134973;27;19908;-66
2022/05/15 15:19:33;;;;;;;;;;;;;;;;;;5115445;28;20394;-75
2022/05/15 15:22:19;;;;;;;;;;;;;;;;;;5115125;28;19915;-76
2022/05/15 15:25:04;;;;;;;;;;;;;;;;;;5114876;28;19968;-75
2022/05/15 15:27:50;;;;;;;;;;;;;;;;;;5115308;28;19915;-76
2022/05/15 15:30:35;;;;;;;;;;;;;;;;;;5115415;28;19907;-76
2022/05/15 15:33:21;;;;;;;;;;;;;;;;;;5115496;28;19915;-75
2022/05/15 15:36:06;;;;;;;;;;;;;;;;;;5115737;28;20396;-65
2022/05/15 15:38:51;;;;;;;;;;;;;;;;;;5115529;27;19915;-70
2022/05/15 15:41:37;;;;;;;;;;;;;;;;;;5135364;27;19908;-69
2022/05/15 15:44:23;;;;;;;;;;;;;;;;;;5135039;27;19963;-69
2022/05/15 15:47:09;;;;;;;;;;;;;;;;;;5135763;27;19907;-70
2022/05/15 15:49:54;;;;;;;;;;;;;;;;;;5124985;27;19918;-70
2022/05/15 15:52:41;;;;;;;;;;;;;;;;;;5114505;28;20032;-66
2022/05/15 15:55:27;;;;;;;;;;;;;;;;;;5101563;27;20018;-65
2022/05/15 15:58:13;;;;;;;;;;;;;;;;;;5116879;27;19915;-66
2022/05/15 16:00:58;;;;;;;;;;;;;;;;;;5101502;27;19914;-66
2022/05/15 16:03:44;;;;;;;;;;;;;;;;;;5114182;28;19919;-66
2022/05/15 16:06:29;;;;;;;;;;;;;;;;;;5099962;28;19927;-65
2022/05/15 16:09:15;;;;;;;;;;;;;;;;;;5133334;27;19943;-66
2022/05/15 16:12:00;;;;;;;;;;;;;;;;;;5118658;27;19908;-70
2022/05/15 16:14:46;;;;;;;;;;;;;;;;;;5134630;27;20002;-64
2022/05/15 16:17:31;;;;;;;;;;;;;;;;;;5110549;28;19920;-64
2022/05/15 16:20:17;;;;;;;;;;;;;;;;;;5114649;28;19938;-63
2022/05/15 16:23:02;;;;;;;;;;;;;;;;;;5116075;27;19968;-64
2022/05/15 16:25:48;;;;;;;;;;;;;;;;;;5115016;28;19966;-63
2022/05/15 16:28:34;;;;;;;;;;;;;;;;;;5099708;28;19916;-64
2022/05/15 16:31:19;;;;;;;;;;;;;;;;;;5115253;28;19908;-66
2022/05/15 16:34:05;;;;;;;;;;;;;;;;;;5114707;28;19908;-64
2022/05/15 16:36:50;;;;;;;;;;;;;;;;;;5115419;27;19908;-65
2022/05/15 16:39:35;;;;;;;;;;;;;;;;;;5135333;27;19961;-65
2022/05/15 16:42:21;;;;;;;;;;;;;;;;;;5134137;27;20320;-65
2022/05/15 16:45:06;;;;;;;;;;;;;;;;;;5133790;27;19919;-64
2022/05/15 16:47:52;;;;;;;;;;;;;;;;;;5133691;27;19911;-69
2022/05/15 16:50:37;;;;;;;;;;;;;;;;;;5114381;27;19911;-69
2022/05/15 16:53:24;;;;;;;;;;;;;;;;;;5099234;28;19908;-64
2022/05/15 16:56:10;;;;;;;;;;;;;;;;;;5113770;28;19912;-66
2022/05/15 16:58:55;;;;;;;;;;;;;;;;;;5113128;28;19912;-65
2022/05/15 17:01:40;;;;;;;;;;;;;;;;;;5111897;28;19908;-64
2022/05/15 17:04:26;;;;;;;;;;;;;;;;;;5112679;28;20358;-67
2022/05/15 17:07:11;;;;;;;;;;;;;;;;;;5114577;28;19908;-66
2022/05/15 17:09:58;;;;;;;;;;;;;;;;;;5111701;28;20010;-75
2022/05/15 17:12:44;;;;;;;;;;;;;;;;;;5113884;28;20335;-74
2022/05/15 17:15:31;;;;;;;;;;;;;;;;;;5113762;28;19954;-75
2022/05/15 17:18:16;;;;;;;;;;;;;;;;;;5098190;28;20010;-76
2022/05/15 17:21:02;;;;;;;;;;;;;;;;;;5113625;28;19908;-75
2022/05/15 17:23:47;;;;;;;;;;;;;;;;;;5114333;28;19995;-76
2022/05/15 17:26:33;;;;;;;;;;;;;;;;;;5113593;28;19985;-63
2022/05/15 17:35:27;;;;;;;;;;;;;;;;;;5113185;28;19920;-69
2022/05/15 17:38:12;;;;;;;;;;;;;;;;;;5115225;27;20274;-68
2022/05/15 17:40:59;;;;;;;;;;;;;;;;;;5112106;28;19912;-68
2022/05/15 17:43:44;;;;;;;;;;;;;;;;;;5114247;27;20320;-74
2022/05/15 17:46:29;;;;;;;;;;;;;;;;;;5112140;28;19916;-65
2022/05/15 17:49:15;;;;;;;;;;;;;;;;;;5112436;28;20319;-65
2022/05/15 17:52:01;;;;;;;;;;;;;;;;;;5112121;28;19908;-65
2022/05/15 17:54:46;;;;;;;;;;;;;;;;;;5114397;27;20397;-64
2022/05/15 17:57:31;;;;;;;;;;;;;;;;;;5112185;28;19915;-65
2022/05/15 18:00:17;;;;;;;;;;;;;;;;;;5112146;28;19968;-65
2022/05/15 18:03:03;;;;;;;;;;;;;;;;;;5112101;28;19947;-67
2022/05/15 18:05:49;;;;;;;;;;;;;;;;;;5098056;28;19981;-67
2022/05/15 18:08:34;;;;;;;;;;;;;;;;;;5115457;27;19912;-68
2022/05/15 18:11:20;;;;;;;;;;;;;;;;;;5096983;28;20287;-65
2022/05/15 18:14:05;;;;;;;;;;;;;;;;;;5112060;28;19907;-63
2022/05/15 18:16:54;;;;;;;;;;;;;;;;;;5111924;28;19961;-66
2022/05/15 18:19:40;;;;;;;;;;;;;;;;;;5113631;27;19915;-67
2022/05/15 18:22:25;;;;;;;;;;;;;;;;;;5113185;28;19914;-75
2022/05/15 18:25:12;;;;;;;;;;;;;;;;;;5113137;28;19923;-64
2022/05/15 18:27:58;;;;;;;;;;;;;;;;;;5113962;27;19939;-64
2022/05/15 18:30:43;;;;;;;;;;;;;;;;;;5112926;28;20294;-66
2022/05/15 18:33:29;;;;;;;;;;;;;;;;;;5113314;27;19907;-66
2022/05/15 18:36:14;;;;;;;;;;;;;;;;;;5113471;28;19998;-66
2022/05/15 18:39:00;;;;;;;;;;;;;;;;;;5113515;28;19955;-65
2022/05/15 18:41:45;;;;;;;;;;;;;;;;;;5097939;28;19930;-64
2022/05/15 18:44:32;;;;;;;;;;;;;;;;;;5114191;27;19920;-64
2022/05/15 18:47:18;;;;;;;;;;;;;;;;;;5114109;27;19908;-64
2022/05/15 18:56:11;;;;;;;;;;;;;;;;;;5113990;27;20012;-63
2022/05/15 18:58:57;;;;;;;;;;;;;;;;;;5112869;28;19916;-77
2022/05/15 19:01:42;;;;;;;;;;;;;;;;;;5112914;28;20013;-63
2022/05/15 19:04:28;;;;;;;;;;;;;;;;;;5112814;28;19957;-64
2022/05/15 19:07:13;;;;;;;;;;;;;;;;;;5114274;28;19946;-65
2022/05/15 19:09:59;;;;;;;;;;;;;;;;;;5132375;28;19908;-64
2022/05/15 19:12:44;;;;;;;;;;;;;;;;;;5131910;28;20280;-65
2022/05/15 19:15:30;;;;;;;;;;;;;;;;;;5132473;28;19929;-66
2022/05/15 19:18:15;;;;;;;;;;;;;;;;;;5117767;28;19972;-65
2022/05/15 19:21:03;;;;;;;;;;;;;;;;;;5096748;28;20209;-62
2022/05/15 19:23:48;;;;;;;;;;;;;;;;;;5114261;27;19908;-63
2022/05/15 19:26:33;;;;;;;;;;;;;;;;;;5115065;28;19919;-62
2022/05/15 19:29:19;;;;;;;;;;;;;;;;;;5115095;28;19914;-62
2022/05/15 19:32:06;;;;;;;;;;;;;;;;;;5114934;28;19918;-61
2022/05/15 19:34:51;;;;;;;;;;;;;;;;;;5080881;28;19912;-64
2022/05/15 19:37:37;;;;;;;;;;;;;;;;;;5106986;27;20002;-65